createdAt,value
2018-08-19T00:02:14.974Z,101745.00
2018-08-19T00:04:48.739Z,101750.00
2018-08-19T00:07:17.530Z,101746.00
2018-08-19T00:09:46.337Z,101746.00
2018-08-19T00:12:15.198Z,101733.00
2018-08-19T00:14:44.032Z,101731.00
2018-08-19T00:17:12.848Z,101744.00
2018-08-19T00:19:41.722Z,101733.00
2018-08-19T00:22:13.003Z,101737.00
2018-08-19T00:24:42.755Z,101737.00
2018-08-19T00:27:11.563Z,101730.00
2018-08-19T00:29:40.393Z,101730.00
2018-08-19T00:32:09.234Z,101728.00
2018-08-19T00:34:38.030Z,101724.00
2018-08-19T00:37:07.170Z,101725.00
2018-08-19T00:39:36.043Z,101728.00
2018-08-19T00:42:05.294Z,101743.00
2018-08-19T00:44:34.717Z,101736.00
2018-08-19T00:47:03.959Z,101739.00
2018-08-19T00:49:32.801Z,101734.00
2018-08-19T00:52:03.134Z,101731.00
2018-08-19T00:54:32.730Z,101728.00
2018-08-19T00:57:01.918Z,101739.00
2018-08-19T00:59:31.940Z,101734.00
2018-08-19T01:02:00.767Z,101734.00
2018-08-19T01:04:30.483Z,101737.00
2018-08-19T01:07:00.395Z,101733.00
2018-08-19T01:09:31.467Z,101725.00
2018-08-19T01:12:00.351Z,101732.00
2018-08-19T01:14:29.262Z,101734.00
2018-08-19T01:16:58.755Z,101733.00
2018-08-19T01:19:27.599Z,101733.00
2018-08-19T01:21:56.467Z,101741.00
2018-08-19T01:24:25.344Z,101729.00
2018-08-19T01:26:54.209Z,101739.00
2018-08-19T01:29:34.934Z,101741.00
2018-08-19T01:32:09.028Z,101738.00
2018-08-19T01:34:38.264Z,101737.00
2018-08-19T01:37:07.125Z,101739.00
2018-08-19T01:39:38.047Z,101748.00
2018-08-19T01:42:07.498Z,101741.00
2018-08-19T01:44:36.739Z,101741.00
2018-08-19T01:47:05.614Z,101741.00
2018-08-19T01:49:34.747Z,101745.00
2018-08-19T01:52:03.557Z,101744.00
2018-08-19T01:54:32.404Z,101744.00
2018-08-19T01:57:02.254Z,101741.00
2018-08-19T01:59:33.150Z,101750.00
2018-08-19T02:02:03.904Z,101748.00
2018-08-19T02:04:34.241Z,101744.00
2018-08-19T02:07:03.142Z,101738.00
2018-08-19T02:09:32.311Z,101737.00
2018-08-19T02:12:04.232Z,101747.00
2018-08-19T02:14:33.109Z,101741.00
2018-08-19T02:17:02.549Z,101743.00
2018-08-19T02:19:31.355Z,101737.00
2018-08-19T02:22:00.162Z,101738.00
2018-08-19T02:24:35.746Z,101731.00
2018-08-19T02:27:04.869Z,101734.00
2018-08-19T02:29:35.625Z,101746.00
2018-08-19T02:32:09.541Z,101728.00
2018-08-19T02:34:41.685Z,101731.00
2018-08-19T02:37:12.552Z,101731.00
2018-08-19T02:39:43.782Z,101728.00
2018-08-19T02:42:27.013Z,101730.00
2018-08-19T02:45:03.410Z,101727.00
2018-08-19T02:47:33.214Z,101727.00
2018-08-19T02:50:02.095Z,101717.00
2018-08-19T02:52:32.913Z,101713.00
2018-08-19T02:55:04.690Z,101720.00
2018-08-19T02:57:34.178Z,101710.00
2018-08-19T03:00:04.804Z,101716.00
2018-08-19T03:02:36.085Z,101718.00
2018-08-19T03:05:10.702Z,101709.00
2018-08-19T03:07:39.527Z,101714.00
2018-08-19T03:10:11.261Z,101714.00
2018-08-19T03:12:40.762Z,101710.00
2018-08-19T03:15:11.242Z,101710.00
2018-08-19T03:17:40.655Z,101719.00
2018-08-19T03:20:13.737Z,101711.00
2018-08-19T03:22:42.704Z,101719.00
2018-08-19T03:25:11.845Z,101719.00
2018-08-19T03:27:40.685Z,101715.00
2018-08-19T03:30:10.953Z,101715.00
2018-08-19T03:32:49.882Z,101722.00
2018-08-19T03:35:19.898Z,101721.00
2018-08-19T03:37:53.419Z,101713.00
2018-08-19T03:40:24.956Z,101719.00
2018-08-19T03:42:54.128Z,101724.00
2018-08-19T03:45:23.281Z,101724.00
2018-08-19T03:47:53.050Z,101726.00
2018-08-19T03:50:23.096Z,101718.00
2018-08-19T03:52:52.574Z,101724.00
2018-08-19T03:55:29.495Z,101727.00
2018-08-19T03:58:07.657Z,101725.00
2018-08-19T04:00:39.675Z,101739.00
2018-08-19T04:03:16.295Z,101727.00
2018-08-19T04:05:49.644Z,101737.00
2018-08-19T04:08:18.458Z,101741.00
2018-08-19T04:10:47.985Z,101733.00
2018-08-19T04:13:27.333Z,101734.00
2018-08-19T04:16:01.246Z,101741.00
2018-08-19T04:18:34.370Z,101752.00
2018-08-19T04:21:04.367Z,101742.00
2018-08-19T04:23:33.645Z,101741.00
2018-08-19T04:26:02.867Z,101746.00
2018-08-19T04:28:35.227Z,101744.00
2018-08-19T04:31:10.058Z,101747.00
2018-08-19T04:33:41.622Z,101747.00
2018-08-19T04:36:12.829Z,101752.00
2018-08-19T04:38:41.844Z,101756.00
2018-08-19T04:41:10.933Z,101757.00
2018-08-19T04:43:39.860Z,101747.00
2018-08-19T04:46:09.371Z,101760.00
2018-08-19T04:48:38.230Z,101761.00
2018-08-19T04:51:07.653Z,101765.00
2018-08-19T04:53:36.488Z,101764.00
2018-08-19T04:56:05.319Z,101761.00
2018-08-19T04:58:34.162Z,101769.00
2018-08-19T05:01:02.973Z,101767.00
2018-08-19T05:03:31.833Z,101776.00
2018-08-19T05:06:01.628Z,101766.00
2018-08-19T05:08:31.056Z,101766.00
2018-08-19T05:10:59.805Z,101763.00
2018-08-19T05:13:30.196Z,101764.00
2018-08-19T05:15:59.196Z,101767.00
2018-08-19T05:18:28.009Z,101769.00
2018-08-19T05:21:04.412Z,101770.00
2018-08-19T05:23:33.217Z,101766.00
2018-08-19T05:26:02.043Z,101766.00
2018-08-19T05:28:37.523Z,101759.00
2018-08-19T05:31:06.367Z,101760.00
2018-08-19T05:33:35.233Z,101768.00
2018-08-19T05:36:04.108Z,101769.00
2018-08-19T05:38:33.555Z,101770.00
2018-08-19T05:41:02.761Z,101767.00
2018-08-19T05:43:31.691Z,101780.00
2018-08-19T05:46:01.565Z,101771.00
2018-08-19T05:48:31.006Z,101771.00
2018-08-19T05:51:00.265Z,101770.00
2018-08-19T05:53:29.072Z,101754.00
2018-08-19T05:55:57.880Z,101763.00
2018-08-19T05:58:26.736Z,101772.00
2018-08-19T06:00:59.338Z,101774.00
2018-08-19T06:03:28.290Z,101782.00
2018-08-19T06:05:57.505Z,101782.00
2018-08-19T06:08:26.293Z,101779.00
2018-08-19T06:10:55.590Z,101782.00
2018-08-19T06:13:24.406Z,101772.00
2018-08-19T06:15:53.304Z,101780.00
2018-08-19T06:18:22.045Z,101779.00
2018-08-19T06:20:50.855Z,101780.00
2018-08-19T06:23:21.761Z,101783.00
2018-08-19T06:25:51.146Z,101784.00
2018-08-19T06:28:19.959Z,101777.00
2018-08-19T06:30:49.684Z,101789.00
2018-08-19T06:33:18.885Z,101784.00
2018-08-19T06:35:48.610Z,101775.00
2018-08-19T06:38:17.413Z,101793.00
2018-08-19T06:40:47.332Z,101783.00
2018-08-19T06:43:16.271Z,101789.00
2018-08-19T06:45:44.978Z,101785.00
2018-08-19T06:48:13.797Z,101785.00
2018-08-19T06:50:42.917Z,101776.00
2018-08-19T06:53:17.180Z,101775.00
2018-08-19T06:55:46.031Z,101783.00
2018-08-19T06:58:14.845Z,101779.00
2018-08-19T07:00:43.675Z,101788.00
2018-08-19T07:03:12.507Z,101779.00
2018-08-19T07:05:43.609Z,101791.00
2018-08-19T07:08:12.455Z,101786.00
2018-08-19T07:10:41.976Z,101795.00
2018-08-19T07:13:13.724Z,101790.00
2018-08-19T07:15:43.607Z,101790.00
2018-08-19T07:18:14.282Z,101793.00
2018-08-19T07:20:43.822Z,101790.00
2018-08-19T07:23:13.039Z,101788.00
2018-08-19T07:25:43.336Z,101793.00
2018-08-19T07:28:13.769Z,101789.00
2018-08-19T07:30:42.937Z,101799.00
2018-08-19T07:33:13.069Z,101784.00
2018-08-19T07:35:41.906Z,101784.00
2018-08-19T07:38:10.937Z,101776.00
2018-08-19T07:40:39.761Z,101786.00
2018-08-19T07:43:08.659Z,101792.00
2018-08-19T07:45:37.490Z,101793.00
2018-08-19T07:48:06.556Z,101787.00
2018-08-19T07:50:35.377Z,101788.00
2018-08-19T07:53:04.422Z,101792.00
2018-08-19T07:55:33.474Z,101783.00
2018-08-19T07:58:02.307Z,101784.00
2018-08-19T08:00:36.485Z,101782.00
2018-08-19T08:03:05.287Z,101777.00
2018-08-19T08:05:38.252Z,101777.00
2018-08-19T08:08:08.678Z,101777.00
2018-08-19T08:10:38.103Z,101780.00
2018-08-19T08:13:10.878Z,101779.00
2018-08-19T08:15:44.726Z,101777.00
2018-08-19T08:18:14.097Z,101777.00
2018-08-19T08:20:42.926Z,101780.00
2018-08-19T08:23:21.793Z,101779.00
2018-08-19T08:25:50.628Z,101777.00
2018-08-19T08:28:19.696Z,101780.00
2018-08-19T08:30:48.859Z,101774.00
2018-08-19T08:33:17.809Z,101768.00
2018-08-19T08:35:51.805Z,101773.00
2018-08-19T08:38:20.606Z,101773.00
2018-08-19T08:40:49.418Z,101774.00
2018-08-19T08:43:18.242Z,101767.00
2018-08-19T08:45:47.052Z,101764.00
2018-08-19T08:48:15.886Z,101765.00
2018-08-19T08:50:45.243Z,101761.00
2018-08-19T08:53:14.464Z,101775.00
2018-08-19T08:55:43.304Z,101762.00
2018-08-19T08:58:12.119Z,101762.00
2018-08-19T09:00:40.938Z,101765.00
2018-08-19T09:03:10.011Z,101764.00
2018-08-19T09:05:38.879Z,101765.00
2018-08-19T09:08:07.786Z,101755.00
2018-08-19T09:10:36.625Z,101758.00
2018-08-19T09:13:05.765Z,101757.00
2018-08-19T09:15:34.562Z,101755.00
2018-08-19T09:18:03.375Z,101755.00
2018-08-19T09:20:35.105Z,101756.00
2018-08-19T09:23:04.001Z,101762.00
2018-08-19T09:25:32.737Z,101744.00
2018-08-19T09:28:01.610Z,101755.00
2018-08-19T09:30:36.454Z,101743.00
2018-08-19T09:33:05.750Z,101741.00
2018-08-19T09:35:35.817Z,101749.00
2018-08-19T09:38:17.437Z,101743.00
2018-08-19T09:40:46.518Z,101741.00
2018-08-19T09:43:15.362Z,101744.00
2018-08-19T09:45:44.594Z,101748.00
2018-08-19T09:48:13.884Z,101732.00
2018-08-19T09:50:43.293Z,101726.00
2018-08-19T09:53:12.711Z,101724.00
2018-08-19T09:55:43.331Z,101722.00
2018-08-19T09:58:17.674Z,101732.00
2018-08-19T10:00:52.001Z,101721.00
2018-08-19T10:03:20.806Z,101723.00
2018-08-19T10:05:49.611Z,101708.00
2018-08-19T10:08:21.615Z,101716.00
2018-08-19T10:10:50.961Z,101715.00
2018-08-19T10:13:19.797Z,101707.00
2018-08-19T10:15:48.630Z,101703.00
2018-08-19T10:18:17.471Z,101694.00
2018-08-19T10:20:46.295Z,101702.00
2018-08-19T10:23:15.103Z,101699.00
2018-08-19T10:25:43.917Z,101696.00
2018-08-19T10:28:12.803Z,101695.00
2018-08-19T10:30:47.682Z,101690.00
2018-08-19T10:33:16.803Z,101683.00
2018-08-19T10:35:45.644Z,101688.00
2018-08-19T10:38:16.364Z,101684.00
2018-08-19T10:40:52.333Z,101693.00
2018-08-19T10:43:21.533Z,101682.00
2018-08-19T10:45:50.344Z,101683.00
2018-08-19T10:48:19.191Z,101679.00
2018-08-19T10:50:48.235Z,101680.00
2018-08-19T10:53:22.374Z,101680.00
2018-08-19T10:55:51.610Z,101680.00
2018-08-19T10:58:20.466Z,101667.00
2018-08-19T11:00:51.450Z,101664.00
2018-08-19T11:03:21.014Z,101651.00
2018-08-19T11:05:51.296Z,101653.00
2018-08-19T11:08:20.093Z,101655.00
2018-08-19T11:10:49.361Z,101646.00
2018-08-19T11:13:19.604Z,101651.00
2018-08-19T11:15:53.633Z,101639.00
2018-08-19T11:18:30.481Z,101639.00
2018-08-19T11:21:06.123Z,101634.00
2018-08-19T11:23:39.498Z,101641.00
2018-08-19T11:26:09.359Z,101632.00
2018-08-19T11:28:41.623Z,101634.00
2018-08-19T11:31:20.988Z,101633.00
2018-08-19T11:33:50.072Z,101637.00
2018-08-19T11:36:18.932Z,101625.00
2018-08-19T11:38:49.438Z,101630.00
2018-08-19T11:41:18.622Z,101627.00
2018-08-19T11:43:48.487Z,101624.00
2018-08-19T11:46:18.713Z,101632.00
2018-08-19T11:48:54.944Z,101626.00
2018-08-19T11:51:42.363Z,101617.00
2018-08-19T11:54:12.875Z,101620.00
2018-08-19T11:56:43.571Z,101608.00
2018-08-19T11:59:12.380Z,101604.00
2018-08-19T12:01:41.194Z,101598.00
2018-08-19T12:04:12.316Z,101606.00
2018-08-19T12:06:41.149Z,101613.00
2018-08-19T12:09:10.783Z,101596.00
2018-08-19T12:11:40.806Z,101593.00
2018-08-19T12:14:14.693Z,101592.00
2018-08-19T12:16:51.072Z,101590.00
2018-08-19T12:19:24.882Z,101591.00
2018-08-19T12:22:08.320Z,101592.00
2018-08-19T12:24:45.711Z,101583.00
2018-08-19T12:27:15.963Z,101576.00
2018-08-19T12:29:45.460Z,101572.00
2018-08-19T12:32:29.581Z,101571.00
2018-08-19T12:34:59.594Z,101574.00
2018-08-19T12:37:29.750Z,101562.00
2018-08-19T12:39:59.494Z,101564.00
2018-08-19T12:42:29.040Z,101555.00
2018-08-19T12:45:13.488Z,101548.00
2018-08-19T12:47:42.570Z,101550.00
2018-08-19T12:50:14.499Z,101547.00
2018-08-19T12:52:43.289Z,101544.00
2018-08-19T12:55:15.797Z,101531.00
2018-08-19T12:57:45.409Z,101536.00
2018-08-19T13:00:17.686Z,101529.00
2018-08-19T13:02:48.551Z,101527.00
2018-08-19T13:05:18.233Z,101534.00
2018-08-19T13:07:47.076Z,101515.00
2018-08-19T13:10:16.332Z,101519.00
2018-08-19T13:13:01.143Z,101511.00
2018-08-19T13:15:31.025Z,101507.00
2018-08-19T13:17:59.946Z,101505.00
2018-08-19T13:20:28.785Z,101503.00
2018-08-19T13:23:01.113Z,101499.00
2018-08-19T13:25:30.249Z,101502.00
2018-08-19T13:27:59.204Z,101494.00
2018-08-19T13:30:28.038Z,101491.00
2018-08-19T13:32:57.235Z,101481.00
2018-08-19T13:35:26.055Z,101482.00
2018-08-19T13:37:54.902Z,101483.00
2018-08-19T13:40:23.710Z,101470.00
2018-08-19T13:42:52.516Z,101460.00
2018-08-19T13:45:22.246Z,101460.00
2018-08-19T13:47:52.431Z,101468.00
2018-08-19T13:50:21.243Z,101461.00
2018-08-19T13:52:50.091Z,101459.00
2018-08-19T13:55:20.332Z,101456.00
2018-08-19T13:57:49.525Z,101456.00
2018-08-19T14:00:21.390Z,101451.00
2018-08-19T14:02:50.744Z,101440.00
2018-08-19T14:05:19.558Z,101447.00
2018-08-19T14:07:48.377Z,101437.00
2018-08-19T14:10:17.576Z,101443.00
2018-08-19T14:12:46.416Z,101442.00
2018-08-19T14:15:15.765Z,101435.00
2018-08-19T14:17:44.598Z,101429.00
2018-08-19T14:20:13.416Z,101424.00
2018-08-19T14:22:42.241Z,101418.00
2018-08-19T14:25:12.030Z,101417.00
2018-08-19T14:27:40.945Z,101412.00
2018-08-19T14:30:11.359Z,101411.00
2018-08-19T14:32:42.066Z,101410.00
2018-08-19T14:35:10.966Z,101406.00
2018-08-19T14:37:40.023Z,101403.00
2018-08-19T14:40:14.862Z,101395.00
2018-08-19T14:42:43.728Z,101390.00
2018-08-19T14:45:12.640Z,101394.00
2018-08-19T14:47:41.449Z,101398.00
2018-08-19T14:50:13.334Z,101384.00
2018-08-19T14:52:42.173Z,101381.00
2018-08-19T14:55:11.076Z,101392.00
2018-08-19T14:57:40.176Z,101396.00
2018-08-19T15:00:13.465Z,101384.00
2018-08-19T15:02:42.315Z,101376.00
2018-08-19T15:05:15.058Z,101376.00
2018-08-19T15:07:44.046Z,101372.00
2018-08-19T15:10:17.487Z,101367.00
2018-08-19T15:12:46.661Z,101368.00
2018-08-19T15:15:15.475Z,101367.00
2018-08-19T15:17:49.743Z,101363.00
2018-08-19T15:20:26.635Z,101363.00
2018-08-19T15:23:12.127Z,101347.00
2018-08-19T15:25:40.969Z,101350.00
2018-08-19T15:28:17.749Z,101342.00
2018-08-19T15:30:46.575Z,101356.00
2018-08-19T15:33:16.039Z,101352.00
2018-08-19T15:35:44.930Z,101343.00
2018-08-19T15:38:13.857Z,101334.00
2018-08-19T15:40:46.104Z,101327.00
2018-08-19T15:43:14.965Z,101316.00
2018-08-19T15:45:44.542Z,101310.00
2018-08-19T15:48:13.750Z,101318.00
2018-08-19T15:50:42.560Z,101318.00
2018-08-19T15:53:11.463Z,101313.00
2018-08-19T15:55:40.534Z,101323.00
2018-08-19T15:58:09.429Z,101325.00
2018-08-19T16:00:40.570Z,101323.00
2018-08-19T16:03:11.194Z,101317.00
2018-08-19T16:05:40.051Z,101315.00
2018-08-19T16:08:08.936Z,101317.00
2018-08-19T16:10:38.156Z,101312.00
2018-08-19T16:13:10.284Z,101313.00
2018-08-19T16:15:39.202Z,101311.00
2018-08-19T16:18:08.484Z,101305.00
2018-08-19T16:20:37.601Z,101310.00
2018-08-19T16:23:06.495Z,101307.00
2018-08-19T16:25:35.398Z,101303.00
2018-08-19T16:28:04.280Z,101296.00
2018-08-19T16:30:33.609Z,101297.00
2018-08-19T16:33:02.421Z,101298.00
2018-08-19T16:35:31.264Z,101295.00
2018-08-19T16:38:00.091Z,101288.00
2018-08-19T16:40:28.956Z,101296.00
2018-08-19T16:42:57.782Z,101282.00
2018-08-19T16:45:26.648Z,101289.00
2018-08-19T16:47:55.502Z,101291.00
2018-08-19T16:50:24.434Z,101280.00
2018-08-19T16:52:53.643Z,101285.00
2018-08-19T16:55:25.464Z,101278.00
2018-08-19T16:57:54.259Z,101277.00
2018-08-19T17:00:23.120Z,101285.00
2018-08-19T17:02:52.572Z,101281.00
2018-08-19T17:05:30.564Z,101282.00
2018-08-19T17:07:59.366Z,101282.00
2018-08-19T17:10:29.834Z,101283.00
2018-08-19T17:12:59.625Z,101278.00
2018-08-19T17:15:28.875Z,101274.00
2018-08-19T17:17:57.875Z,101281.00
2018-08-19T17:20:27.646Z,101269.00
2018-08-19T17:22:56.457Z,101266.00
2018-08-19T17:25:25.279Z,101272.00
2018-08-19T17:27:54.271Z,101274.00
2018-08-19T17:30:23.098Z,101265.00
2018-08-19T17:32:57.972Z,101269.00
2018-08-19T17:35:26.797Z,101273.00
2018-08-19T17:37:55.595Z,101273.00
2018-08-19T17:40:24.555Z,101264.00
2018-08-19T17:42:53.540Z,101269.00
2018-08-19T17:45:22.377Z,101262.00
2018-08-19T17:47:51.246Z,101270.00
2018-08-19T17:50:24.621Z,101271.00
2018-08-19T17:52:54.586Z,101273.00
2018-08-19T17:55:23.810Z,101278.00
2018-08-19T17:57:52.654Z,101270.00
2018-08-19T18:00:21.930Z,101282.00
2018-08-19T18:02:51.013Z,101276.00
2018-08-19T18:05:20.269Z,101273.00
2018-08-19T18:07:51.426Z,101272.00
2018-08-19T18:10:20.361Z,101279.00
2018-08-19T18:12:56.114Z,101275.00
2018-08-19T18:15:25.007Z,101278.00
2018-08-19T18:17:59.640Z,101280.00
2018-08-19T18:20:36.007Z,101277.00
2018-08-19T18:23:15.722Z,101277.00
2018-08-19T18:25:48.940Z,101277.00
2018-08-19T18:28:23.699Z,101279.00
2018-08-19T18:30:58.518Z,101286.00
2018-08-19T18:33:27.990Z,101286.00
2018-08-19T18:35:56.814Z,101284.00
2018-08-19T18:38:28.122Z,101281.00
2018-08-19T18:40:56.899Z,101284.00
2018-08-19T18:43:25.698Z,101279.00
2018-08-19T18:45:54.525Z,101273.00
2018-08-19T18:48:23.802Z,101270.00
2018-08-19T18:50:55.146Z,101272.00
2018-08-19T18:53:24.482Z,101272.00
2018-08-19T18:55:53.269Z,101274.00
2018-08-19T18:58:22.098Z,101274.00
2018-08-19T19:00:56.290Z,101280.00
2018-08-19T19:03:25.270Z,101280.00
2018-08-19T19:05:54.643Z,101275.00
2018-08-19T19:08:23.926Z,101272.00
2018-08-19T19:10:58.599Z,101282.00
2018-08-19T19:13:27.949Z,101275.00
2018-08-19T19:15:56.788Z,101271.00
2018-08-19T19:18:25.599Z,101266.00
2018-08-19T19:20:58.609Z,101272.00
2018-08-19T19:23:32.784Z,101273.00
2018-08-19T19:26:03.281Z,101268.00
2018-08-19T19:28:32.397Z,101267.00
2018-08-19T19:31:06.590Z,101274.00
2018-08-19T19:33:36.217Z,101261.00
2018-08-19T19:36:09.275Z,101269.00
2018-08-19T19:38:45.626Z,101267.00
2018-08-19T19:41:14.953Z,101259.00
2018-08-19T19:43:43.794Z,101261.00
2018-08-19T19:46:12.609Z,101260.00
2018-08-19T19:48:41.474Z,101264.00
2018-08-19T19:51:10.315Z,101249.00
2018-08-19T19:53:39.106Z,101254.00
2018-08-19T19:56:16.608Z,101261.00
2018-08-19T19:58:46.423Z,101245.00
2018-08-19T20:01:15.650Z,101256.00
2018-08-19T20:03:49.720Z,101249.00
2018-08-19T20:06:19.061Z,101242.00
2018-08-19T20:08:47.885Z,101245.00
2018-08-19T20:11:22.307Z,101245.00
2018-08-19T20:13:51.096Z,101244.00
2018-08-19T20:16:20.157Z,101241.00
2018-08-19T20:18:48.990Z,101245.00
2018-08-19T20:21:25.731Z,101245.00
2018-08-19T20:23:56.198Z,101239.00
2018-08-19T20:26:25.819Z,101237.00
2018-08-19T20:28:55.965Z,101241.00
2018-08-19T20:31:25.027Z,101238.00
2018-08-19T20:33:53.923Z,101239.00
2018-08-19T20:36:22.795Z,101238.00
2018-08-19T20:38:51.658Z,101240.00
2018-08-19T20:41:20.529Z,101240.00
2018-08-19T20:43:49.449Z,101232.00
2018-08-19T20:46:18.263Z,101234.00
2018-08-19T20:48:47.561Z,101239.00
2018-08-19T20:51:16.366Z,101238.00
2018-08-19T20:53:45.555Z,101222.00
2018-08-19T20:56:14.394Z,101227.00
2018-08-19T20:58:43.243Z,101222.00
2018-08-19T21:01:17.586Z,101212.00
2018-08-19T21:03:46.780Z,101215.00
2018-08-19T21:06:15.624Z,101222.00
2018-08-19T21:08:44.774Z,101218.00
2018-08-19T21:11:13.622Z,101222.00
2018-08-19T21:13:42.413Z,101222.00
2018-08-19T21:16:11.648Z,101223.00
2018-08-19T21:18:40.491Z,101222.00
2018-08-19T21:21:09.395Z,101220.00
2018-08-19T21:23:38.266Z,101222.00
2018-08-19T21:26:07.271Z,101214.00
2018-08-19T21:28:36.127Z,101217.00
2018-08-19T21:31:04.962Z,101220.00
2018-08-19T21:33:33.794Z,101216.00
2018-08-19T21:36:02.707Z,101219.00
2018-08-19T21:38:31.623Z,101215.00
2018-08-19T21:41:00.446Z,101217.00
2018-08-19T21:43:30.734Z,101214.00
2018-08-19T21:46:00.075Z,101213.00
2018-08-19T21:48:28.893Z,101221.00
2018-08-19T21:50:57.721Z,101221.00
2018-08-19T21:53:26.607Z,101221.00
2018-08-19T21:55:55.437Z,101224.00
2018-08-19T21:58:24.354Z,101217.00
2018-08-19T22:00:59.878Z,101224.00
2018-08-19T22:03:33.961Z,101218.00
2018-08-19T22:06:05.855Z,101212.00
2018-08-19T22:08:34.697Z,101223.00
2018-08-19T22:11:04.184Z,101221.00
2018-08-19T22:13:33.038Z,101219.00
2018-08-19T22:16:01.857Z,101222.00
2018-08-19T22:18:31.606Z,101224.00
2018-08-19T22:21:14.939Z,101225.00
2018-08-19T22:23:45.570Z,101125.00
2018-08-19T22:26:15.485Z,101219.00
2018-08-19T22:28:44.581Z,101227.00
2018-08-19T22:31:25.246Z,101216.00
2018-08-19T22:33:55.161Z,101217.00
2018-08-19T22:36:24.024Z,101207.00
2018-08-19T22:38:53.515Z,101211.00
2018-08-19T22:41:24.594Z,101206.00
2018-08-19T22:43:54.410Z,101204.00
2018-08-19T22:46:23.370Z,101203.00
2018-08-19T22:48:52.963Z,101204.00
2018-08-19T22:51:21.830Z,101201.00
2018-08-19T22:53:52.331Z,101199.00
2018-08-19T22:56:21.729Z,101204.00
2018-08-19T22:58:50.531Z,101191.00
2018-08-19T23:01:19.398Z,101193.00
2018-08-19T23:03:48.850Z,101205.00
2018-08-19T23:06:17.633Z,101199.00
2018-08-19T23:08:46.482Z,101186.00
2018-08-19T23:11:22.429Z,101189.00
2018-08-19T23:14:08.581Z,101192.00
2018-08-19T23:16:37.413Z,101196.00
2018-08-19T23:19:06.254Z,101184.00
2018-08-19T23:21:35.088Z,101185.00
2018-08-19T23:24:04.240Z,101184.00
2018-08-19T23:26:33.064Z,101181.00
2018-08-19T23:29:01.892Z,101179.00
2018-08-19T23:31:30.713Z,101183.00
2018-08-19T23:33:59.529Z,101174.00
2018-08-19T23:36:28.348Z,101177.00
2018-08-19T23:38:57.171Z,101189.00
2018-08-19T23:41:25.970Z,101187.00
2018-08-19T23:43:54.784Z,101189.00
2018-08-19T23:46:24.007Z,101182.00
2018-08-19T23:48:52.818Z,101186.00
2018-08-19T23:51:25.735Z,101189.00
2018-08-19T23:53:54.632Z,101190.00
2018-08-19T23:56:23.472Z,101192.00
2018-08-19T23:58:52.308Z,101201.00
